createdAt,value
2022-11-24T00:00:39.611Z,13.77
2022-11-24T00:02:41.926Z,14.20
2022-11-24T00:04:44.151Z,13.20
2022-11-24T00:06:46.335Z,13.60
2022-11-24T00:08:48.619Z,13.30
2022-11-24T00:10:50.773Z,14.70
2022-11-24T00:12:52.900Z,13.53
2022-11-24T00:14:55.105Z,14.07
2022-11-24T00:16:57.355Z,13.70
2022-11-24T00:19:01.153Z,13.47
2022-11-24T00:21:03.401Z,12.87
2022-11-24T00:23:05.564Z,12.97
2022-11-24T00:25:07.928Z,11.70
2022-11-24T00:27:10.068Z,11.27
2022-11-24T00:29:12.247Z,11.70
2022-11-24T00:31:17.543Z,11.97
2022-11-24T00:33:19.985Z,11.03
2022-11-24T00:35:22.130Z,11.87
2022-11-24T00:37:24.326Z,11.57
2022-11-24T00:39:26.502Z,11.47
2022-11-24T00:41:29.404Z,10.93
2022-11-24T00:43:31.545Z,14.97
2022-11-24T00:45:33.700Z,10.50
2022-11-24T00:47:35.959Z,12.93
2022-11-24T00:49:38.103Z,11.67
2022-11-24T00:51:40.288Z,11.87
2022-11-24T00:53:42.988Z,12.30
2022-11-24T00:55:49.665Z,11.80
2022-11-24T00:57:51.802Z,10.73
2022-11-24T00:59:53.949Z,11.07
2022-11-24T01:01:56.122Z,10.80
2022-11-24T01:04:01.387Z,11.10
2022-11-24T01:06:07.933Z,11.70
2022-11-24T01:08:10.641Z,12.60
2022-11-24T01:10:12.987Z,12.27
2022-11-24T01:12:15.161Z,12.33
2022-11-24T01:14:17.411Z,13.13
2022-11-24T01:16:25.972Z,12.30
2022-11-24T01:18:28.317Z,13.17
2022-11-24T01:20:30.831Z,12.33
2022-11-24T01:22:33.136Z,12.40
2022-11-24T01:24:35.610Z,12.70
2022-11-24T01:26:38.064Z,10.73
2022-11-24T01:28:46.285Z,14.23
2022-11-24T01:30:59.619Z,13.20
2022-11-24T01:33:01.814Z,12.20
2022-11-24T01:35:05.037Z,12.33
2022-11-24T01:37:07.171Z,14.27
2022-11-24T01:39:09.482Z,13.23
2022-11-24T01:41:15.652Z,13.30
2022-11-24T01:43:21.745Z,14.27
2022-11-24T01:45:36.110Z,14.10
2022-11-24T01:47:43.617Z,14.57
2022-11-24T01:49:52.021Z,14.47
2022-11-24T01:52:01.692Z,14.17
2022-11-24T01:54:11.795Z,15.27
2022-11-24T01:56:14.149Z,15.33
2022-11-24T01:58:19.553Z,13.97
2022-11-24T02:00:21.889Z,14.43
2022-11-24T02:02:26.375Z,14.87
2022-11-24T02:04:31.667Z,15.70
2022-11-24T02:06:35.543Z,14.70
2022-11-24T02:08:47.245Z,14.53
2022-11-24T02:10:49.348Z,14.37
2022-11-24T02:12:52.705Z,13.90
2022-11-24T02:14:55.743Z,13.10
2022-11-24T02:16:57.980Z,12.53
2022-11-24T02:19:00.183Z,13.27
2022-11-24T02:21:02.445Z,12.47
2022-11-24T02:23:39.902Z,13.00
2022-11-24T02:25:55.432Z,11.83
2022-11-24T02:27:59.471Z,13.40
2022-11-24T02:30:01.606Z,14.03
2022-11-24T02:32:06.477Z,13.17
2022-11-24T02:34:08.692Z,14.40
2022-11-24T02:36:10.973Z,14.70
2022-11-24T02:38:13.756Z,15.40
2022-11-24T02:40:18.779Z,14.83
2022-11-24T02:42:21.344Z,14.83
2022-11-24T02:44:25.628Z,16.20
2022-11-24T02:46:27.934Z,14.20
2022-11-24T02:48:30.252Z,15.07
2022-11-24T02:50:32.422Z,15.40
2022-11-24T02:52:34.658Z,15.10
2022-11-24T02:54:37.256Z,15.47
2022-11-24T02:56:39.547Z,13.30
2022-11-24T02:58:41.842Z,14.87
2022-11-24T03:00:43.987Z,14.70
2022-11-24T03:02:46.254Z,15.40
2022-11-24T03:04:48.380Z,16.30
2022-11-24T03:06:50.674Z,14.90
2022-11-24T03:08:52.868Z,16.43
2022-11-24T03:10:55.028Z,17.27
2022-11-24T03:12:57.608Z,15.70
2022-11-24T03:14:59.766Z,16.47
2022-11-24T03:17:02.095Z,15.40
2022-11-24T03:19:05.043Z,15.57
2022-11-24T03:21:07.249Z,16.00
2022-11-24T03:23:09.465Z,15.30
2022-11-24T03:25:11.638Z,18.30
2022-11-24T03:27:13.785Z,17.30
2022-11-24T03:29:15.964Z,16.80
2022-11-24T03:31:18.223Z,16.30
2022-11-24T03:33:20.498Z,17.67
2022-11-24T03:35:22.723Z,17.37
2022-11-24T03:37:25.099Z,16.30
2022-11-24T03:39:27.286Z,15.50
2022-11-24T03:41:29.428Z,15.57
2022-11-24T03:43:32.288Z,15.80
2022-11-24T03:45:49.828Z,16.33
2022-11-24T03:47:52.348Z,16.37
2022-11-24T03:49:54.498Z,14.97
2022-11-24T03:51:57.006Z,15.73
2022-11-24T03:53:59.134Z,16.03
2022-11-24T03:56:02.237Z,16.30
2022-11-24T03:58:04.414Z,16.83
2022-11-24T04:00:07.184Z,15.90
2022-11-24T04:02:10.220Z,15.73
2022-11-24T04:04:13.201Z,14.70
2022-11-24T04:06:15.421Z,14.07
2022-11-24T04:08:18.229Z,14.73
2022-11-24T04:10:20.350Z,15.80
2022-11-24T04:12:41.318Z,14.87
2022-11-24T04:14:43.452Z,14.57
2022-11-24T04:16:45.600Z,14.83
2022-11-24T04:18:47.889Z,17.10
2022-11-24T04:20:51.254Z,16.20
2022-11-24T04:22:53.470Z,15.83
2022-11-24T04:24:55.684Z,15.67
2022-11-24T04:26:57.858Z,17.03
2022-11-24T04:29:00.084Z,17.20
2022-11-24T04:31:03.684Z,16.00
2022-11-24T04:33:05.865Z,14.87
2022-11-24T04:35:08.292Z,16.43
2022-11-24T04:37:10.613Z,14.90
2022-11-24T04:39:19.735Z,15.10
2022-11-24T04:41:28.441Z,13.07
2022-11-24T04:43:34.158Z,13.07
2022-11-24T04:45:39.884Z,14.20
2022-11-24T04:47:42.009Z,14.70
2022-11-24T04:49:44.275Z,13.97
2022-11-24T04:51:46.609Z,14.00
2022-11-24T04:53:49.477Z,13.73
2022-11-24T04:55:51.616Z,15.07
2022-11-24T04:57:53.846Z,15.00
2022-11-24T04:59:56.073Z,15.10
2022-11-24T05:01:58.430Z,15.10
2022-11-24T05:04:00.672Z,15.00
2022-11-24T05:06:03.169Z,14.47
2022-11-24T05:08:05.410Z,16.60
2022-11-24T05:10:26.294Z,15.93
2022-11-24T05:12:31.527Z,17.10
2022-11-24T05:14:38.324Z,15.50
2022-11-24T05:16:40.826Z,15.00
2022-11-24T05:18:42.979Z,14.50
2022-11-24T05:20:45.276Z,15.20
2022-11-24T05:22:47.456Z,14.70
2022-11-24T05:24:49.647Z,16.77
2022-11-24T05:26:51.784Z,14.20
2022-11-24T05:28:54.028Z,14.07
2022-11-24T05:31:00.744Z,15.30
2022-11-24T05:33:06.163Z,15.70
2022-11-24T05:35:09.836Z,16.17
2022-11-24T05:37:12.029Z,14.87
2022-11-24T05:39:14.132Z,15.83
2022-11-24T05:41:16.302Z,17.43
2022-11-24T05:43:18.487Z,17.10
2022-11-24T05:45:21.774Z,17.13
2022-11-24T05:47:24.135Z,17.50
2022-11-24T05:49:26.293Z,15.07
2022-11-24T05:51:28.612Z,16.00
2022-11-24T05:53:30.718Z,16.53
2022-11-24T05:55:33.299Z,15.80
2022-11-24T05:57:35.942Z,15.27
2022-11-24T05:59:38.037Z,15.30
2022-11-24T06:01:40.258Z,15.80
2022-11-24T06:03:42.430Z,17.00
2022-11-24T06:05:47.221Z,16.13
2022-11-24T06:07:49.585Z,16.80
2022-11-24T06:09:51.750Z,16.73
2022-11-24T06:11:53.908Z,15.50
2022-11-24T06:13:56.183Z,16.77
2022-11-24T06:15:59.466Z,16.73
2022-11-24T06:18:01.608Z,18.20
2022-11-24T06:20:04.669Z,17.77
2022-11-24T06:22:06.816Z,19.03
2022-11-24T06:24:09.050Z,18.87
2022-11-24T06:26:11.192Z,16.77
2022-11-24T06:28:13.335Z,17.77
2022-11-24T06:30:15.582Z,16.20
2022-11-24T06:32:17.896Z,17.30
2022-11-24T06:34:20.074Z,17.60
2022-11-24T06:36:22.149Z,18.80
2022-11-24T06:38:24.515Z,18.00
2022-11-24T06:40:26.712Z,16.10
2022-11-24T06:42:28.784Z,15.67
2022-11-24T06:44:31.084Z,17.70
2022-11-24T06:46:33.693Z,16.03
2022-11-24T06:48:36.047Z,18.03
2022-11-24T06:50:39.280Z,16.77
2022-11-24T06:52:41.403Z,17.07
2022-11-24T06:54:43.577Z,17.20
2022-11-24T06:56:46.254Z,17.57
2022-11-24T06:58:50.357Z,16.90
2022-11-24T07:00:52.593Z,15.63
2022-11-24T07:02:54.747Z,17.23
2022-11-24T07:04:56.939Z,16.60
2022-11-24T07:06:59.030Z,17.20
2022-11-24T07:09:01.289Z,16.10
2022-11-24T07:11:08.158Z,15.93
2022-11-24T07:13:10.620Z,16.93
2022-11-24T07:15:12.811Z,17.10
2022-11-24T07:17:14.948Z,16.57
2022-11-24T07:19:23.095Z,15.60
2022-11-24T07:21:28.085Z,17.13
2022-11-24T07:23:30.233Z,18.23
2022-11-24T07:25:32.312Z,15.97
2022-11-24T07:27:34.392Z,15.90
2022-11-24T07:29:36.608Z,17.13
2022-11-24T07:31:38.766Z,16.43
2022-11-24T07:33:40.952Z,16.30
2022-11-24T07:35:43.053Z,19.20
2022-11-24T07:37:45.233Z,21.60
2022-11-24T07:39:47.336Z,21.10
2022-11-24T07:41:49.418Z,15.90
2022-11-24T07:43:51.927Z,19.57
2022-11-24T07:45:54.135Z,16.50
2022-11-24T07:47:56.325Z,16.87
2022-11-24T07:49:58.598Z,17.77
2022-11-24T07:52:01.325Z,18.87
2022-11-24T07:54:03.529Z,19.20
2022-11-24T07:56:08.959Z,17.33
2022-11-24T07:58:11.053Z,20.77
2022-11-24T08:00:13.741Z,20.93
2022-11-24T08:02:15.923Z,20.87
2022-11-24T08:04:18.022Z,17.60
2022-11-24T08:06:27.329Z,17.40
2022-11-24T08:08:34.075Z,16.23
2022-11-24T08:10:36.210Z,14.93
2022-11-24T08:12:38.332Z,15.43
2022-11-24T08:14:40.478Z,14.60
2022-11-24T08:16:42.799Z,15.17
2022-11-24T08:18:50.729Z,14.80
2022-11-24T08:20:52.849Z,13.90
2022-11-24T08:22:59.710Z,16.43
2022-11-24T08:25:01.923Z,14.63
2022-11-24T08:27:04.264Z,15.83
2022-11-24T08:29:06.432Z,15.50
2022-11-24T08:31:10.921Z,13.40
2022-11-24T08:33:13.008Z,16.20
2022-11-24T08:35:15.272Z,14.83
2022-11-24T08:37:17.432Z,15.43
2022-11-24T08:39:20.363Z,16.43
2022-11-24T08:41:22.984Z,14.07
2022-11-24T08:43:25.180Z,15.00
2022-11-24T08:45:30.667Z,15.10
2022-11-24T08:47:33.085Z,15.30
2022-11-24T08:49:35.503Z,14.70
2022-11-24T08:51:37.910Z,14.90
2022-11-24T08:53:40.859Z,13.80
2022-11-24T08:55:42.952Z,13.90
2022-11-24T08:57:45.040Z,14.93
2022-11-24T08:59:47.266Z,13.13
2022-11-24T09:01:49.546Z,14.00
2022-11-24T09:03:52.255Z,11.80
2022-11-24T09:05:54.541Z,13.03
2022-11-24T09:07:56.783Z,12.80
2022-11-24T09:09:59.043Z,11.60
2022-11-24T09:12:01.167Z,12.20
2022-11-24T09:14:03.587Z,12.20
2022-11-24T09:16:08.560Z,12.87
2022-11-24T09:18:10.692Z,11.70
2022-11-24T09:20:13.254Z,12.23
2022-11-24T09:22:15.453Z,10.70
2022-11-24T09:24:17.589Z,10.60
2022-11-24T09:26:25.575Z,11.63
2022-11-24T09:28:27.668Z,11.33
2022-11-24T09:30:30.117Z,9.97
2022-11-24T09:32:32.214Z,14.20
2022-11-24T09:34:34.460Z,13.10
2022-11-24T09:36:36.840Z,17.20
2022-11-24T09:38:39.286Z,10.43
2022-11-24T09:40:41.390Z,10.03
2022-11-24T09:42:53.423Z,11.80
2022-11-24T09:46:03.271Z,10.53
2022-11-24T09:48:02.784Z,12.30
2022-11-24T09:50:21.122Z,11.40
2022-11-24T09:52:39.225Z,11.10
2022-11-24T09:54:55.913Z,11.90
2022-11-24T09:57:00.281Z,10.20
2022-11-24T09:59:09.774Z,7.90
2022-11-24T10:01:41.774Z,9.10
2022-11-24T10:03:51.268Z,13.17
2022-11-24T10:05:53.691Z,11.20
2022-11-24T10:08:36.307Z,15.83
2022-11-24T10:10:54.920Z,8.10
2022-11-24T10:13:33.993Z,8.97
2022-11-24T10:15:51.393Z,7.00
2022-11-24T10:18:18.187Z,6.47
2022-11-24T10:21:08.253Z,6.50
2022-11-24T10:23:18.952Z,5.97
2022-11-24T10:25:21.919Z,6.20
2022-11-24T10:27:34.214Z,5.97
2022-11-24T10:29:41.175Z,6.33
2022-11-24T10:31:44.740Z,6.33
2022-11-24T10:33:47.522Z,5.53
2022-11-24T10:35:57.078Z,6.23
2022-11-24T10:38:11.596Z,7.30
2022-11-24T10:40:55.377Z,6.33
2022-11-24T10:42:49.081Z,5.93
2022-11-24T10:45:06.160Z,5.90
2022-11-24T10:47:19.703Z,4.90
2022-11-24T10:49:30.772Z,5.60
2022-11-24T10:51:40.166Z,5.67
2022-11-24T10:53:42.908Z,5.70
2022-11-24T10:55:57.142Z,5.90
2022-11-24T10:58:15.489Z,6.83
2022-11-24T11:00:20.090Z,6.63
2022-11-24T11:02:36.973Z,5.40
2022-11-24T11:04:38.961Z,5.30
2022-11-24T11:06:40.936Z,5.27
2022-11-24T11:08:43.012Z,5.93
2022-11-24T11:10:46.258Z,5.90
2022-11-24T11:12:48.521Z,5.70
2022-11-24T11:14:50.634Z,4.90
2022-11-24T11:16:54.092Z,5.80
2022-11-24T11:18:56.409Z,5.80
2022-11-24T11:21:02.130Z,5.53
2022-11-24T11:23:16.405Z,5.50
2022-11-24T11:25:35.887Z,5.03
2022-11-24T11:27:39.093Z,6.40
2022-11-24T11:34:33.544Z,5.00
2022-11-24T11:36:46.656Z,6.10
2022-11-24T11:38:48.874Z,5.77
2022-11-24T11:40:51.537Z,5.50
2022-11-24T11:43:05.835Z,5.40
2022-11-24T11:45:18.709Z,4.70
2022-11-24T11:47:28.467Z,6.20
2022-11-24T11:49:30.507Z,5.30
2022-11-24T11:51:47.411Z,4.70
2022-11-24T11:54:05.477Z,5.53
2022-11-24T11:56:25.678Z,6.30
2022-11-24T11:59:04.943Z,6.03
2022-11-24T12:01:45.424Z,6.00
2022-11-24T12:04:10.348Z,6.40
2022-11-24T12:06:14.290Z,5.90
2022-11-24T12:08:27.001Z,6.40
2022-11-24T12:10:53.184Z,6.80
2022-11-24T12:13:15.302Z,8.50
2022-11-24T12:15:23.094Z,8.23
2022-11-24T12:17:33.721Z,6.83
2022-11-24T12:19:51.159Z,7.80
2022-11-24T12:22:44.395Z,5.87
2022-11-24T12:25:04.461Z,6.10
2022-11-24T12:27:23.332Z,7.03
2022-11-24T12:29:31.782Z,6.13
2022-11-24T12:31:57.067Z,6.70
2022-11-24T12:34:20.492Z,6.30
2022-11-24T12:37:14.048Z,5.80
2022-11-24T12:39:31.532Z,5.80
2022-11-24T12:41:48.892Z,5.23
2022-11-24T12:43:55.116Z,5.50
2022-11-24T12:46:05.217Z,6.73
2022-11-24T12:48:16.593Z,6.83
2022-11-24T12:50:25.107Z,5.93
2022-11-24T12:52:41.018Z,6.83
2022-11-24T12:54:43.176Z,7.43
2022-11-24T12:56:53.965Z,6.70
2022-11-24T12:59:10.836Z,6.97
2022-11-24T13:01:22.007Z,7.70
2022-11-24T13:03:33.096Z,7.13
2022-11-24T13:05:43.851Z,6.40
2022-11-24T13:08:05.913Z,9.27
2022-11-24T13:13:08.619Z,7.10
2022-11-24T13:15:43.348Z,6.93
2022-11-24T13:17:58.493Z,5.50
2022-11-24T13:20:18.815Z,6.97
2022-11-24T13:22:25.291Z,6.90
2022-11-24T13:24:37.047Z,6.97
2022-11-24T13:26:42.239Z,7.07
2022-11-24T13:29:18.033Z,6.83
2022-11-24T13:31:26.291Z,7.00
2022-11-24T13:33:32.875Z,7.20
2022-11-24T13:35:34.853Z,8.43
2022-11-24T13:37:36.875Z,6.67
2022-11-24T13:39:50.675Z,6.37
2022-11-24T13:41:52.750Z,7.20
2022-11-24T13:44:16.506Z,8.93
2022-11-24T13:47:01.547Z,7.10
2022-11-24T13:49:13.967Z,7.50
2022-11-24T13:51:23.382Z,7.57
2022-11-24T13:53:34.749Z,7.70
2022-11-24T13:55:38.929Z,7.03
2022-11-24T13:57:46.127Z,6.37
2022-11-24T13:59:48.248Z,6.37
2022-11-24T14:01:57.544Z,7.20
2022-11-24T14:04:30.529Z,7.47
2022-11-24T14:06:48.176Z,6.20
2022-11-24T14:08:50.320Z,6.50
2022-11-24T14:10:53.386Z,6.33
2022-11-24T14:13:23.368Z,6.80
2022-11-24T14:15:29.503Z,6.53
2022-11-24T14:17:31.519Z,6.50
2022-11-24T14:19:33.511Z,6.60
2022-11-24T14:21:42.003Z,7.40
2022-11-24T14:23:46.000Z,6.43
2022-11-24T14:25:52.100Z,6.90
2022-11-24T14:27:54.370Z,6.73
2022-11-24T14:29:59.177Z,7.30
2022-11-24T14:32:03.496Z,6.37
2022-11-24T14:34:11.506Z,6.63
2022-11-24T14:36:15.102Z,6.13
2022-11-24T14:38:17.282Z,6.80
2022-11-24T14:40:38.951Z,7.10
2022-11-24T14:42:41.117Z,6.07
2022-11-24T14:44:53.899Z,7.20
2022-11-24T14:47:07.221Z,6.73
2022-11-24T14:49:09.331Z,5.97
2022-11-24T14:51:11.265Z,6.70
2022-11-24T14:53:15.547Z,7.00
2022-11-24T14:55:32.227Z,6.23
2022-11-24T14:57:36.556Z,6.40
2022-11-24T14:59:39.535Z,6.77
2022-11-24T15:01:41.658Z,7.30
2022-11-24T15:03:43.663Z,8.50
2022-11-24T15:05:56.439Z,13.70
2022-11-24T15:08:03.086Z,14.43
2022-11-24T15:10:16.818Z,15.47
2022-11-24T15:12:28.657Z,8.13
2022-11-24T15:14:39.420Z,8.13
2022-11-24T15:16:41.584Z,8.43
2022-11-24T15:18:46.845Z,7.23
2022-11-24T15:20:48.972Z,8.77
2022-11-24T15:22:52.533Z,8.20
2022-11-24T15:24:54.926Z,8.43
2022-11-24T15:27:01.139Z,8.30
2022-11-24T15:29:03.088Z,8.30
2022-11-24T15:31:06.952Z,8.70
2022-11-24T15:33:15.563Z,9.13
2022-11-24T15:35:17.695Z,8.80
2022-11-24T15:37:19.774Z,10.77
2022-11-24T15:39:21.795Z,11.60
2022-11-24T15:41:29.936Z,11.00
2022-11-24T15:43:34.652Z,10.67
2022-11-24T15:45:36.673Z,10.00
2022-11-24T15:47:38.651Z,10.23
2022-11-24T15:49:40.601Z,8.60
2022-11-24T15:51:44.906Z,9.70
2022-11-24T15:53:49.909Z,9.60
2022-11-24T15:55:52.308Z,10.23
2022-11-24T15:57:54.307Z,9.70
2022-11-24T15:59:56.292Z,9.30
2022-11-24T16:01:58.370Z,8.80
2022-11-24T16:04:01.287Z,8.63
2022-11-24T16:06:06.681Z,8.80
2022-11-24T16:08:16.003Z,8.70
2022-11-24T16:10:26.689Z,8.03
2022-11-24T16:12:28.667Z,9.20
2022-11-24T16:14:30.857Z,9.17
2022-11-24T16:16:32.939Z,9.90
2022-11-24T16:18:39.330Z,9.03
2022-11-24T16:20:41.536Z,10.87
2022-11-24T16:22:43.664Z,11.07
2022-11-24T16:24:45.804Z,11.00
2022-11-24T16:26:47.905Z,11.30
2022-11-24T16:28:49.872Z,11.13
2022-11-24T16:30:51.793Z,10.63
2022-11-24T16:32:54.937Z,12.40
2022-11-24T16:34:57.185Z,13.07
2022-11-24T16:36:59.174Z,13.20
2022-11-24T16:39:01.121Z,15.03
2022-11-24T16:41:03.130Z,13.43
2022-11-24T16:43:05.127Z,13.60
2022-11-24T16:45:07.888Z,11.80
2022-11-24T16:47:12.054Z,14.17
2022-11-24T16:49:14.003Z,12.80
2022-11-24T16:51:16.695Z,12.43
2022-11-24T16:53:18.653Z,14.90
2022-11-24T16:55:20.629Z,12.33
2022-11-24T16:57:22.702Z,10.60
2022-11-24T16:59:24.855Z,9.53
2022-11-24T17:01:27.602Z,9.23
2022-11-24T17:03:33.822Z,10.53
2022-11-24T17:05:35.794Z,9.57
2022-11-24T17:07:37.834Z,8.63
2022-11-24T17:09:40.735Z,8.40
2022-11-24T17:11:43.064Z,7.90
2022-11-24T17:13:46.001Z,7.80
2022-11-24T17:15:53.827Z,8.20
2022-11-24T17:18:22.829Z,8.23
2022-11-24T17:20:18.250Z,8.67
2022-11-24T17:22:20.205Z,8.63
2022-11-24T17:24:22.250Z,8.97
2022-11-24T17:26:25.181Z,7.00
2022-11-24T17:28:27.207Z,8.77
2022-11-24T17:30:29.205Z,8.60
2022-11-24T17:32:31.914Z,8.53
2022-11-24T17:34:34.059Z,8.03
2022-11-24T17:36:36.216Z,7.83
2022-11-24T17:38:38.211Z,9.17
2022-11-24T17:40:40.197Z,8.43
2022-11-24T17:42:42.164Z,9.27
2022-11-24T17:44:44.108Z,8.57
2022-11-24T17:46:46.087Z,8.70
2022-11-24T17:48:48.087Z,8.80
2022-11-24T17:51:12.914Z,8.17
2022-11-24T17:53:15.013Z,8.40
2022-11-24T17:55:17.084Z,8.50
2022-11-24T17:57:19.097Z,11.13
2022-11-24T17:59:21.120Z,9.43
2022-11-24T18:01:23.772Z,8.80
2022-11-24T18:03:28.672Z,8.40
2022-11-24T18:05:30.773Z,9.40
2022-11-24T18:07:35.410Z,9.63
2022-11-24T18:09:38.161Z,10.33
2022-11-24T18:11:40.292Z,8.37
2022-11-24T18:13:58.386Z,7.20
2022-11-24T18:16:02.486Z,8.53
2022-11-24T18:18:04.635Z,8.80
2022-11-24T18:20:07.394Z,7.83
2022-11-24T18:22:09.383Z,9.60
2022-11-24T18:24:12.404Z,9.93
2022-11-24T18:26:15.337Z,10.20
2022-11-24T18:28:17.335Z,10.60
2022-11-24T18:30:19.448Z,14.30
2022-11-24T18:32:21.435Z,10.93
2022-11-24T18:34:24.771Z,10.67
2022-11-24T18:36:30.545Z,8.60
2022-11-24T18:38:36.814Z,8.90
2022-11-24T18:40:40.016Z,9.57
2022-11-24T18:42:41.935Z,8.57
2022-11-24T18:44:45.424Z,8.37
2022-11-24T18:46:49.627Z,7.77
2022-11-24T18:48:53.138Z,7.40
2022-11-24T18:50:56.703Z,8.83
2022-11-24T18:52:58.883Z,10.60
2022-11-24T18:55:03.965Z,10.57
2022-11-24T18:57:06.111Z,8.93
2022-11-24T18:59:08.084Z,9.80
2022-11-24T19:01:21.594Z,12.70
2022-11-24T19:03:23.661Z,8.80
2022-11-24T19:05:25.834Z,10.57
2022-11-24T19:07:27.918Z,10.77
2022-11-24T19:09:29.995Z,10.50
2022-11-24T19:11:34.108Z,10.93
2022-11-24T19:13:36.059Z,11.00
2022-11-24T19:15:38.050Z,9.57
2022-11-24T19:17:40.050Z,9.67
2022-11-24T19:19:42.045Z,9.77
2022-11-24T19:21:44.400Z,10.73
2022-11-24T19:23:46.392Z,9.90
2022-11-24T19:25:48.632Z,8.90
2022-11-24T19:27:50.581Z,9.77
2022-11-24T19:29:54.916Z,9.23
2022-11-24T19:31:56.984Z,8.87
2022-11-24T19:33:59.775Z,9.50
2022-11-24T19:36:07.888Z,10.07
2022-11-24T19:38:13.629Z,9.50
2022-11-24T19:40:17.101Z,8.83
2022-11-24T19:42:19.118Z,9.00
2022-11-24T19:44:21.239Z,10.73
2022-11-24T19:46:26.485Z,9.90
2022-11-24T19:48:36.456Z,9.10
2022-11-24T19:50:38.508Z,8.80
2022-11-24T19:52:40.462Z,8.83
2022-11-24T19:54:42.487Z,8.93
2022-11-24T19:56:44.482Z,9.50
2022-11-24T19:58:47.452Z,9.73
2022-11-24T20:00:49.575Z,9.13
2022-11-24T20:02:51.601Z,8.80
2022-11-24T20:04:53.629Z,8.23
2022-11-24T20:06:55.664Z,9.47
2022-11-24T20:09:01.473Z,9.10
2022-11-24T20:11:06.761Z,9.30
2022-11-24T20:13:08.871Z,8.07
2022-11-24T20:15:10.948Z,8.90
2022-11-24T20:17:14.057Z,7.80
2022-11-24T20:19:17.514Z,8.90
2022-11-24T20:21:21.804Z,8.20
2022-11-24T20:23:23.868Z,8.90
2022-11-24T20:25:25.965Z,8.83
2022-11-24T20:27:28.074Z,8.30
2022-11-24T20:29:32.190Z,8.17
2022-11-24T20:31:36.877Z,8.70
2022-11-24T20:33:39.664Z,8.40
2022-11-24T20:35:41.772Z,8.43
2022-11-24T20:37:43.896Z,8.20
2022-11-24T20:39:45.995Z,8.70
2022-11-24T20:41:48.349Z,7.80
2022-11-24T20:43:51.212Z,7.80
2022-11-24T20:45:53.384Z,8.20
2022-11-24T20:47:55.580Z,8.50
2022-11-24T20:49:57.816Z,7.30
2022-11-24T20:51:59.899Z,7.97
2022-11-24T20:54:05.147Z,8.13
2022-11-24T20:56:16.743Z,7.33
2022-11-24T20:58:18.982Z,8.27
2022-11-24T21:00:21.254Z,8.17
2022-11-24T21:02:23.430Z,8.43
2022-11-24T21:04:27.070Z,8.27
2022-11-24T21:06:30.808Z,8.17
2022-11-24T21:08:34.407Z,9.33
2022-11-24T21:10:36.564Z,10.87
2022-11-24T21:12:38.749Z,9.83
2022-11-24T21:14:41.113Z,9.77
2022-11-24T21:16:43.832Z,9.67
2022-11-24T21:18:47.247Z,10.40
2022-11-24T21:20:49.441Z,9.23
2022-11-24T21:22:51.561Z,9.30
2022-11-24T21:24:53.667Z,9.00
2022-11-24T21:26:55.750Z,8.03
2022-11-24T21:28:58.148Z,7.80
2022-11-24T21:31:11.736Z,9.20
2022-11-24T21:33:13.972Z,8.27
2022-11-24T21:35:16.088Z,8.10
2022-11-24T21:37:18.333Z,7.07
2022-11-24T21:39:20.483Z,7.07
2022-11-24T21:41:24.197Z,8.13
2022-11-24T21:43:30.076Z,7.40
2022-11-24T21:45:34.794Z,7.60
2022-11-24T21:47:38.186Z,7.90
2022-11-24T21:49:40.266Z,7.40
2022-11-24T21:51:42.400Z,7.70
2022-11-24T21:53:45.213Z,7.13
2022-11-24T21:55:57.178Z,6.17
2022-11-24T21:57:59.267Z,7.30
2022-11-24T22:00:01.382Z,5.77
2022-11-24T22:02:12.989Z,6.77
2022-11-24T22:04:15.676Z,7.07
2022-11-24T22:06:19.245Z,7.07
2022-11-24T22:08:21.699Z,6.10
2022-11-24T22:10:23.779Z,6.33
2022-11-24T22:12:25.875Z,6.30
2022-11-24T22:14:28.051Z,7.10
2022-11-24T22:16:30.256Z,7.23
2022-11-24T22:18:37.902Z,6.80
2022-11-24T22:20:40.093Z,6.40
2022-11-24T22:22:42.224Z,6.40
2022-11-24T22:24:44.375Z,6.67
2022-11-24T22:26:46.560Z,6.10
2022-11-24T22:28:48.932Z,7.13
2022-11-24T22:30:51.122Z,6.23
2022-11-24T22:32:53.839Z,6.60
2022-11-24T22:34:56.045Z,6.00
2022-11-24T22:36:58.215Z,6.07
2022-11-24T22:39:03.264Z,7.03
2022-11-24T22:41:10.499Z,6.67
2022-11-24T22:43:12.739Z,6.77
2022-11-24T22:45:14.976Z,7.37
2022-11-24T22:47:17.097Z,6.70
2022-11-24T22:49:19.265Z,7.37
2022-11-24T22:51:29.809Z,7.00
2022-11-24T22:53:32.248Z,8.43
2022-11-24T22:55:35.684Z,8.10
2022-11-24T22:57:37.771Z,8.17
2022-11-24T22:59:39.934Z,8.00
2022-11-24T23:01:42.128Z,8.30
2022-11-24T23:03:44.621Z,8.20
2022-11-24T23:05:46.835Z,8.40
2022-11-24T23:07:49.086Z,7.67
2022-11-24T23:09:51.229Z,8.87
2022-11-24T23:11:53.352Z,8.80
2022-11-24T23:13:56.931Z,9.47
2022-11-24T23:16:03.893Z,8.57
2022-11-24T23:18:06.115Z,8.10
2022-11-24T23:20:08.836Z,7.77
2022-11-24T23:22:10.970Z,8.20
2022-11-24T23:24:13.144Z,8.53
2022-11-24T23:26:18.238Z,7.23
2022-11-24T23:28:20.397Z,7.77
2022-11-24T23:30:22.527Z,7.27
2022-11-24T23:32:24.751Z,8.23
2022-11-24T23:34:26.844Z,7.83
2022-11-24T23:36:29.758Z,7.50
2022-11-24T23:38:34.853Z,8.93
2022-11-24T23:40:37.017Z,9.47
2022-11-24T23:42:39.144Z,10.83
2022-11-24T23:44:41.259Z,9.30
2022-11-24T23:46:43.345Z,9.07
2022-11-24T23:48:45.528Z,9.03
2022-11-24T23:50:47.692Z,9.53
2022-11-24T23:52:49.823Z,8.87
2022-11-24T23:54:51.945Z,8.73
2022-11-24T23:56:54.130Z,8.03
2022-11-24T23:58:56.293Z,8.90
